sensor_id;sensor_type;location;lat;lon;timestamp;temperature;humidity
21115;DHT22;10715;48.546;9.896;2023-08-08T00:00:26;7.80;99.90
21115;DHT22;10715;48.546;9.896;2023-08-08T00:02:51;7.90;99.90
21115;DHT22;10715;48.546;9.896;2023-08-08T00:05:17;7.80;99.90
21115;DHT22;10715;48.546;9.896;2023-08-08T00:07:43;7.80;99.90
21115;DHT22;10715;48.546;9.896;2023-08-08T00:10:09;7.80;99.90
21115;DHT22;10715;48.546;9.896;2023-08-08T00:12:34;7.80;99.90
21115;DHT22;10715;48.546;9.896;2023-08-08T00:15:00;7.80;99.90
21115;DHT22;10715;48.546;9.896;2023-08-08T00:17:26;7.80;99.90
21115;DHT22;10715;48.546;9.896;2023-08-08T00:19:52;7.80;99.90
21115;DHT22;10715;48.546;9.896;2023-08-08T00:22:18;7.70;99.90
21115;DHT22;10715;48.546;9.896;2023-08-08T00:24:43;7.70;99.90
21115;DHT22;10715;48.546;9.896;2023-08-08T00:27:09;7.70;99.90
21115;DHT22;10715;48.546;9.896;2023-08-08T00:29:35;7.70;99.90
21115;DHT22;10715;48.546;9.896;2023-08-08T00:32:00;7.70;99.90
21115;DHT22;10715;48.546;9.896;2023-08-08T00:34:26;7.60;99.90
21115;DHT22;10715;48.546;9.896;2023-08-08T00:36:52;7.60;99.90
21115;DHT22;10715;48.546;9.896;2023-08-08T00:39:17;7.60;99.90
21115;DHT22;10715;48.546;9.896;2023-08-08T00:41:43;7.60;99.90
21115;DHT22;10715;48.546;9.896;2023-08-08T00:44:09;7.60;99.90
21115;DHT22;10715;48.546;9.896;2023-08-08T00:46:35;7.60;99.90
21115;DHT22;10715;48.546;9.896;2023-08-08T00:49:01;7.60;99.90
21115;DHT22;10715;48.546;9.896;2023-08-08T00:51:27;7.60;99.90
21115;DHT22;10715;48.546;9.896;2023-08-08T00:53:53;7.60;99.90
21115;DHT22;10715;48.546;9.896;2023-08-08T00:56:19;7.60;99.90
21115;DHT22;10715;48.546;9.896;2023-08-08T00:58:45;7.50;99.90
21115;DHT22;10715;48.546;9.896;2023-08-08T01:01:12;7.60;99.90
21115;DHT22;10715;48.546;9.896;2023-08-08T01:03:38;7.50;99.90
21115;DHT22;10715;48.546;9.896;2023-08-08T01:06:10;7.50;99.90
21115;DHT22;10715;48.546;9.896;2023-08-08T01:08:48;7.50;99.90
21115;DHT22;10715;48.546;9.896;2023-08-08T01:11:17;7.50;99.90
21115;DHT22;10715;48.546;9.896;2023-08-08T01:13:43;7.40;99.90
21115;DHT22;10715;48.546;9.896;2023-08-08T01:16:10;7.40;99.90
21115;DHT22;10715;48.546;9.896;2023-08-08T01:18:38;7.40;99.90
21115;DHT22;10715;48.546;9.896;2023-08-08T01:21:05;7.40;99.90
21115;DHT22;10715;48.546;9.896;2023-08-08T01:23:51;7.40;99.90
21115;DHT22;10715;48.546;9.896;2023-08-08T01:26:18;7.30;99.90
21115;DHT22;10715;48.546;9.896;2023-08-08T01:28:44;7.30;99.90
21115;DHT22;10715;48.546;9.896;2023-08-08T01:31:10;7.30;99.90
21115;DHT22;10715;48.546;9.896;2023-08-08T01:33:36;7.30;99.90
21115;DHT22;10715;48.546;9.896;2023-08-08T01:36:13;7.20;99.90
21115;DHT22;10715;48.546;9.896;2023-08-08T01:38:44;7.20;99.90
21115;DHT22;10715;48.546;9.896;2023-08-08T01:41:13;7.20;99.90
21115;DHT22;10715;48.546;9.896;2023-08-08T01:43:39;7.20;99.90
21115;DHT22;10715;48.546;9.896;2023-08-08T01:46:06;7.20;99.90
21115;DHT22;10715;48.546;9.896;2023-08-08T01:48:32;7.20;99.90
21115;DHT22;10715;48.546;9.896;2023-08-08T01:50:58;7.10;99.90
21115;DHT22;10715;48.546;9.896;2023-08-08T01:53:24;7.20;99.90
21115;DHT22;10715;48.546;9.896;2023-08-08T01:55:50;7.20;99.90
21115;DHT22;10715;48.546;9.896;2023-08-08T01:58:18;7.30;99.90
21115;DHT22;10715;48.546;9.896;2023-08-08T02:00:43;7.30;99.90
21115;DHT22;10715;48.546;9.896;2023-08-08T02:03:11;7.30;99.90
21115;DHT22;10715;48.546;9.896;2023-08-08T02:05:37;7.30;99.90
21115;DHT22;10715;48.546;9.896;2023-08-08T02:08:03;7.30;99.90
21115;DHT22;10715;48.546;9.896;2023-08-08T02:10:29;7.30;99.90
21115;DHT22;10715;48.546;9.896;2023-08-08T02:12:54;7.30;99.90
21115;DHT22;10715;48.546;9.896;2023-08-08T02:15:20;7.30;99.90
21115;DHT22;10715;48.546;9.896;2023-08-08T02:17:46;7.30;99.90
21115;DHT22;10715;48.546;9.896;2023-08-08T02:20:12;7.30;99.90
21115;DHT22;10715;48.546;9.896;2023-08-08T02:22:38;7.40;99.90
21115;DHT22;10715;48.546;9.896;2023-08-08T02:25:04;7.30;99.90
21115;DHT22;10715;48.546;9.896;2023-08-08T02:27:30;7.40;99.90
21115;DHT22;10715;48.546;9.896;2023-08-08T02:29:55;7.40;99.90
21115;DHT22;10715;48.546;9.896;2023-08-08T02:32:23;7.40;99.90
21115;DHT22;10715;48.546;9.896;2023-08-08T02:34:49;7.40;99.90
21115;DHT22;10715;48.546;9.896;2023-08-08T02:37:15;7.40;99.90
21115;DHT22;10715;48.546;9.896;2023-08-08T02:39:45;7.40;99.90
21115;DHT22;10715;48.546;9.896;2023-08-08T02:42:10;7.40;99.90
21115;DHT22;10715;48.546;9.896;2023-08-08T02:44:36;7.40;99.90
21115;DHT22;10715;48.546;9.896;2023-08-08T02:47:02;7.40;99.90
21115;DHT22;10715;48.546;9.896;2023-08-08T02:49:27;7.50;99.90
21115;DHT22;10715;48.546;9.896;2023-08-08T02:51:54;7.50;99.90
21115;DHT22;10715;48.546;9.896;2023-08-08T02:54:19;7.50;99.90
21115;DHT22;10715;48.546;9.896;2023-08-08T02:56:45;7.50;99.90
21115;DHT22;10715;48.546;9.896;2023-08-08T02:59:11;7.50;99.90
21115;DHT22;10715;48.546;9.896;2023-08-08T03:01:37;7.60;99.90
21115;DHT22;10715;48.546;9.896;2023-08-08T03:04:05;7.60;99.90
21115;DHT22;10715;48.546;9.896;2023-08-08T03:06:32;7.60;99.90
21115;DHT22;10715;48.546;9.896;2023-08-08T03:08:57;7.60;99.90
21115;DHT22;10715;48.546;9.896;2023-08-08T03:11:23;7.60;99.90
21115;DHT22;10715;48.546;9.896;2023-08-08T03:13:49;7.60;99.90
21115;DHT22;10715;48.546;9.896;2023-08-08T03:16:15;7.60;99.90
21115;DHT22;10715;48.546;9.896;2023-08-08T03:18:40;7.60;99.90
21115;DHT22;10715;48.546;9.896;2023-08-08T03:21:06;7.60;99.90
21115;DHT22;10715;48.546;9.896;2023-08-08T03:23:32;7.60;99.90
21115;DHT22;10715;48.546;9.896;2023-08-08T03:25:58;7.60;99.90
21115;DHT22;10715;48.546;9.896;2023-08-08T03:28:24;7.60;99.90
21115;DHT22;10715;48.546;9.896;2023-08-08T03:30:50;7.60;99.90
21115;DHT22;10715;48.546;9.896;2023-08-08T03:33:15;7.50;99.90
21115;DHT22;10715;48.546;9.896;2023-08-08T03:35:41;7.50;99.90
21115;DHT22;10715;48.546;9.896;2023-08-08T03:38:08;7.50;99.90
21115;DHT22;10715;48.546;9.896;2023-08-08T03:40:34;7.50;99.90
21115;DHT22;10715;48.546;9.896;2023-08-08T03:43:00;7.40;99.90
21115;DHT22;10715;48.546;9.896;2023-08-08T03:45:26;7.40;99.90
21115;DHT22;10715;48.546;9.896;2023-08-08T03:47:52;7.40;99.90
21115;DHT22;10715;48.546;9.896;2023-08-08T03:50:18;7.40;99.90
21115;DHT22;10715;48.546;9.896;2023-08-08T03:52:43;7.40;99.90
21115;DHT22;10715;48.546;9.896;2023-08-08T03:55:09;7.40;99.90
21115;DHT22;10715;48.546;9.896;2023-08-08T03:57:35;7.40;99.90
21115;DHT22;10715;48.546;9.896;2023-08-08T04:00:00;7.40;99.90
21115;DHT22;10715;48.546;9.896;2023-08-08T04:02:26;7.30;99.90
21115;DHT22;10715;48.546;9.896;2023-08-08T04:04:53;7.30;99.90
21115;DHT22;10715;48.546;9.896;2023-08-08T04:07:19;7.30;99.90
21115;DHT22;10715;48.546;9.896;2023-08-08T04:09:45;7.30;99.90
21115;DHT22;10715;48.546;9.896;2023-08-08T04:12:10;7.30;99.90
21115;DHT22;10715;48.546;9.896;2023-08-08T04:14:36;7.30;99.90
21115;DHT22;10715;48.546;9.896;2023-08-08T04:17:02;7.30;99.90
21115;DHT22;10715;48.546;9.896;2023-08-08T04:19:28;7.30;99.90
21115;DHT22;10715;48.546;9.896;2023-08-08T04:21:54;7.30;99.90
21115;DHT22;10715;48.546;9.896;2023-08-08T04:24:20;7.20;99.90
21115;DHT22;10715;48.546;9.896;2023-08-08T04:26:45;7.20;99.90
21115;DHT22;10715;48.546;9.896;2023-08-08T04:29:11;7.20;99.90
21115;DHT22;10715;48.546;9.896;2023-08-08T04:31:37;7.20;99.90
21115;DHT22;10715;48.546;9.896;2023-08-08T04:34:02;7.20;99.90
21115;DHT22;10715;48.546;9.896;2023-08-08T04:36:28;7.20;99.90
21115;DHT22;10715;48.546;9.896;2023-08-08T04:38:55;7.30;99.90
21115;DHT22;10715;48.546;9.896;2023-08-08T04:41:20;7.20;99.90
21115;DHT22;10715;48.546;9.896;2023-08-08T04:43:46;7.20;99.90
21115;DHT22;10715;48.546;9.896;2023-08-08T04:46:12;7.30;99.90
21115;DHT22;10715;48.546;9.896;2023-08-08T04:48:38;7.30;99.90
21115;DHT22;10715;48.546;9.896;2023-08-08T04:51:08;7.30;99.90
21115;DHT22;10715;48.546;9.896;2023-08-08T04:53:34;7.30;99.90
21115;DHT22;10715;48.546;9.896;2023-08-08T04:56:00;7.30;99.90
21115;DHT22;10715;48.546;9.896;2023-08-08T04:58:25;7.40;99.90
21115;DHT22;10715;48.546;9.896;2023-08-08T05:00:51;7.40;99.90
21115;DHT22;10715;48.546;9.896;2023-08-08T05:03:17;7.40;99.90
21115;DHT22;10715;48.546;9.896;2023-08-08T05:05:43;7.50;99.90
21115;DHT22;10715;48.546;9.896;2023-08-08T05:08:11;7.50;99.90
21115;DHT22;10715;48.546;9.896;2023-08-08T05:10:37;7.50;99.90
21115;DHT22;10715;48.546;9.896;2023-08-08T05:13:02;7.50;99.90
21115;DHT22;10715;48.546;9.896;2023-08-08T05:15:28;7.50;99.90
21115;DHT22;10715;48.546;9.896;2023-08-08T05:17:54;7.50;99.90
21115;DHT22;10715;48.546;9.896;2023-08-08T05:20:21;7.60;99.90
21115;DHT22;10715;48.546;9.896;2023-08-08T05:22:47;7.60;99.90
21115;DHT22;10715;48.546;9.896;2023-08-08T05:25:13;7.70;99.90
21115;DHT22;10715;48.546;9.896;2023-08-08T05:27:39;7.70;99.90
21115;DHT22;10715;48.546;9.896;2023-08-08T05:30:05;7.70;99.90
21115;DHT22;10715;48.546;9.896;2023-08-08T05:32:31;7.80;99.90
21115;DHT22;10715;48.546;9.896;2023-08-08T05:34:57;7.80;99.90
21115;DHT22;10715;48.546;9.896;2023-08-08T05:37:24;7.90;99.90
21115;DHT22;10715;48.546;9.896;2023-08-08T05:39:49;7.90;99.90
21115;DHT22;10715;48.546;9.896;2023-08-08T05:42:15;8.00;99.90
21115;DHT22;10715;48.546;9.896;2023-08-08T05:44:41;8.00;99.90
21115;DHT22;10715;48.546;9.896;2023-08-08T05:47:07;8.10;99.90
21115;DHT22;10715;48.546;9.896;2023-08-08T05:49:34;8.10;99.90
21115;DHT22;10715;48.546;9.896;2023-08-08T05:51:59;8.20;99.90
21115;DHT22;10715;48.546;9.896;2023-08-08T05:54:25;8.20;99.90
21115;DHT22;10715;48.546;9.896;2023-08-08T05:56:51;8.30;99.90
21115;DHT22;10715;48.546;9.896;2023-08-08T05:59:16;8.30;99.90
21115;DHT22;10715;48.546;9.896;2023-08-08T06:01:42;8.40;99.90
21115;DHT22;10715;48.546;9.896;2023-08-08T06:04:09;8.50;99.90
21115;DHT22;10715;48.546;9.896;2023-08-08T06:06:35;8.60;99.90
21115;DHT22;10715;48.546;9.896;2023-08-08T06:09:01;8.80;99.90
21115;DHT22;10715;48.546;9.896;2023-08-08T06:11:26;9.00;99.90
21115;DHT22;10715;48.546;9.896;2023-08-08T06:13:52;9.20;99.90
21115;DHT22;10715;48.546;9.896;2023-08-08T06:16:20;9.40;99.90
21115;DHT22;10715;48.546;9.896;2023-08-08T06:18:45;9.60;99.90
21115;DHT22;10715;48.546;9.896;2023-08-08T06:21:11;9.80;99.90
21115;DHT22;10715;48.546;9.896;2023-08-08T06:23:37;10.00;99.90
21115;DHT22;10715;48.546;9.896;2023-08-08T06:26:03;10.30;99.90
21115;DHT22;10715;48.546;9.896;2023-08-08T06:28:29;10.50;99.90
21115;DHT22;10715;48.546;9.896;2023-08-08T06:30:56;10.70;99.90
21115;DHT22;10715;48.546;9.896;2023-08-08T06:33:22;10.80;99.90
21115;DHT22;10715;48.546;9.896;2023-08-08T06:35:49;11.00;99.90
21115;DHT22;10715;48.546;9.896;2023-08-08T06:38:14;11.10;99.90
21115;DHT22;10715;48.546;9.896;2023-08-08T06:40:40;11.20;99.90
21115;DHT22;10715;48.546;9.896;2023-08-08T06:43:06;11.30;99.90
21115;DHT22;10715;48.546;9.896;2023-08-08T06:45:32;11.40;99.90
21115;DHT22;10715;48.546;9.896;2023-08-08T06:47:57;11.50;99.90
21115;DHT22;10715;48.546;9.896;2023-08-08T06:50:23;11.60;99.90
21115;DHT22;10715;48.546;9.896;2023-08-08T06:52:52;11.70;99.90
21115;DHT22;10715;48.546;9.896;2023-08-08T06:55:17;11.80;99.90
21115;DHT22;10715;48.546;9.896;2023-08-08T06:57:43;11.90;99.90
21115;DHT22;10715;48.546;9.896;2023-08-08T07:00:09;12.00;99.90
21115;DHT22;10715;48.546;9.896;2023-08-08T07:02:39;12.10;99.90
21115;DHT22;10715;48.546;9.896;2023-08-08T07:05:06;12.20;99.90
21115;DHT22;10715;48.546;9.896;2023-08-08T07:07:32;12.30;99.90
21115;DHT22;10715;48.546;9.896;2023-08-08T07:09:59;12.50;99.90
21115;DHT22;10715;48.546;9.896;2023-08-08T07:12:24;12.60;99.90
21115;DHT22;10715;48.546;9.896;2023-08-08T07:14:50;12.70;99.90
21115;DHT22;10715;48.546;9.896;2023-08-08T07:17:16;12.80;99.90
21115;DHT22;10715;48.546;9.896;2023-08-08T07:19:42;13.00;99.90
21115;DHT22;10715;48.546;9.896;2023-08-08T07:22:07;13.10;99.90
21115;DHT22;10715;48.546;9.896;2023-08-08T07:24:34;13.20;99.90
21115;DHT22;10715;48.546;9.896;2023-08-08T07:27:00;13.30;99.90
21115;DHT22;10715;48.546;9.896;2023-08-08T07:29:26;13.40;99.90
21115;DHT22;10715;48.546;9.896;2023-08-08T07:31:52;13.50;99.90
21115;DHT22;10715;48.546;9.896;2023-08-08T07:34:18;13.50;99.90
21115;DHT22;10715;48.546;9.896;2023-08-08T07:36:45;13.60;99.90
21115;DHT22;10715;48.546;9.896;2023-08-08T07:39:11;13.70;99.90
21115;DHT22;10715;48.546;9.896;2023-08-08T07:41:36;13.80;99.90
21115;DHT22;10715;48.546;9.896;2023-08-08T07:44:02;13.90;99.90
21115;DHT22;10715;48.546;9.896;2023-08-08T07:46:28;14.00;99.90
21115;DHT22;10715;48.546;9.896;2023-08-08T07:48:54;14.10;99.90
21115;DHT22;10715;48.546;9.896;2023-08-08T07:51:20;14.20;99.90
21115;DHT22;10715;48.546;9.896;2023-08-08T07:53:45;14.20;99.90
21115;DHT22;10715;48.546;9.896;2023-08-08T07:56:11;14.30;99.90
21115;DHT22;10715;48.546;9.896;2023-08-08T07:58:37;14.40;99.90
21115;DHT22;10715;48.546;9.896;2023-08-08T08:01:02;14.50;99.90
21115;DHT22;10715;48.546;9.896;2023-08-08T08:03:28;14.50;99.90
21115;DHT22;10715;48.546;9.896;2023-08-08T08:05:54;14.60;99.90
21115;DHT22;10715;48.546;9.896;2023-08-08T08:08:20;14.80;99.90
21115;DHT22;10715;48.546;9.896;2023-08-08T08:10:47;14.90;99.90
21115;DHT22;10715;48.546;9.896;2023-08-08T08:13:14;15.00;99.90
21115;DHT22;10715;48.546;9.896;2023-08-08T08:15:40;15.10;99.90
21115;DHT22;10715;48.546;9.896;2023-08-08T08:18:05;15.20;99.90
21115;DHT22;10715;48.546;9.896;2023-08-08T08:20:31;15.30;99.90
21115;DHT22;10715;48.546;9.896;2023-08-08T08:22:57;15.40;99.90
21115;DHT22;10715;48.546;9.896;2023-08-08T08:25:22;15.40;99.90
21115;DHT22;10715;48.546;9.896;2023-08-08T08:27:48;15.50;99.90
21115;DHT22;10715;48.546;9.896;2023-08-08T08:30:14;15.60;99.90
21115;DHT22;10715;48.546;9.896;2023-08-08T08:32:41;15.60;99.90
21115;DHT22;10715;48.546;9.896;2023-08-08T08:35:07;15.70;99.90
21115;DHT22;10715;48.546;9.896;2023-08-08T08:37:33;15.70;99.90
21115;DHT22;10715;48.546;9.896;2023-08-08T08:39:59;15.70;99.90
21115;DHT22;10715;48.546;9.896;2023-08-08T08:42:27;15.80;99.90
21115;DHT22;10715;48.546;9.896;2023-08-08T08:44:57;15.80;99.90
21115;DHT22;10715;48.546;9.896;2023-08-08T08:47:24;15.80;99.90
21115;DHT22;10715;48.546;9.896;2023-08-08T08:49:52;15.80;99.90
21115;DHT22;10715;48.546;9.896;2023-08-08T08:52:18;15.90;99.90
21115;DHT22;10715;48.546;9.896;2023-08-08T08:54:44;15.90;99.90
21115;DHT22;10715;48.546;9.896;2023-08-08T08:57:10;15.90;99.90
21115;DHT22;10715;48.546;9.896;2023-08-08T08:59:35;16.00;99.90
21115;DHT22;10715;48.546;9.896;2023-08-08T09:02:02;16.00;99.90
21115;DHT22;10715;48.546;9.896;2023-08-08T09:04:28;16.10;99.90
21115;DHT22;10715;48.546;9.896;2023-08-08T09:06:56;16.10;99.90
21115;DHT22;10715;48.546;9.896;2023-08-08T09:09:22;16.20;99.90
21115;DHT22;10715;48.546;9.896;2023-08-08T09:11:53;16.20;99.90
21115;DHT22;10715;48.546;9.896;2023-08-08T09:14:25;16.20;99.90
21115;DHT22;10715;48.546;9.896;2023-08-08T09:16:52;16.30;99.90
21115;DHT22;10715;48.546;9.896;2023-08-08T09:19:19;16.30;99.90
21115;DHT22;10715;48.546;9.896;2023-08-08T09:21:46;16.30;99.90
21115;DHT22;10715;48.546;9.896;2023-08-08T09:24:12;16.40;99.90
21115;DHT22;10715;48.546;9.896;2023-08-08T09:26:42;16.50;99.90
21115;DHT22;10715;48.546;9.896;2023-08-08T09:29:09;16.50;99.90
21115;DHT22;10715;48.546;9.896;2023-08-08T09:31:35;16.50;99.90
21115;DHT22;10715;48.546;9.896;2023-08-08T09:34:03;16.60;99.90
21115;DHT22;10715;48.546;9.896;2023-08-08T09:36:29;16.60;99.90
21115;DHT22;10715;48.546;9.896;2023-08-08T09:38:55;16.60;99.90
21115;DHT22;10715;48.546;9.896;2023-08-08T09:41:22;16.70;99.90
21115;DHT22;10715;48.546;9.896;2023-08-08T09:43:52;16.80;99.90
21115;DHT22;10715;48.546;9.896;2023-08-08T09:46:22;16.80;99.90
21115;DHT22;10715;48.546;9.896;2023-08-08T09:48:48;16.90;99.90
21115;DHT22;10715;48.546;9.896;2023-08-08T09:51:14;16.90;99.90
21115;DHT22;10715;48.546;9.896;2023-08-08T09:53:40;17.00;99.90
21115;DHT22;10715;48.546;9.896;2023-08-08T09:56:07;17.00;99.90
21115;DHT22;10715;48.546;9.896;2023-08-08T09:58:33;17.10;99.90
21115;DHT22;10715;48.546;9.896;2023-08-08T10:00:59;17.10;99.90
21115;DHT22;10715;48.546;9.896;2023-08-08T10:03:25;17.10;99.90
21115;DHT22;10715;48.546;9.896;2023-08-08T10:05:54;17.10;99.90
21115;DHT22;10715;48.546;9.896;2023-08-08T10:08:20;17.20;99.90
21115;DHT22;10715;48.546;9.896;2023-08-08T10:10:48;17.20;99.90
21115;DHT22;10715;48.546;9.896;2023-08-08T10:13:26;17.20;99.90
21115;DHT22;10715;48.546;9.896;2023-08-08T10:15:53;17.20;99.90
21115;DHT22;10715;48.546;9.896;2023-08-08T10:18:21;17.20;99.90
21115;DHT22;10715;48.546;9.896;2023-08-08T10:20:49;17.30;99.90
21115;DHT22;10715;48.546;9.896;2023-08-08T10:23:17;17.30;99.90
21115;DHT22;10715;48.546;9.896;2023-08-08T10:25:47;17.40;99.90
21115;DHT22;10715;48.546;9.896;2023-08-08T10:28:15;17.40;99.90
21115;DHT22;10715;48.546;9.896;2023-08-08T10:30:54;17.50;99.90
21115;DHT22;10715;48.546;9.896;2023-08-08T10:33:22;17.50;99.90
21115;DHT22;10715;48.546;9.896;2023-08-08T10:38:25;17.60;99.90
21115;DHT22;10715;48.546;9.896;2023-08-08T10:41:02;17.60;99.90
21115;DHT22;10715;48.546;9.896;2023-08-08T10:43:29;17.60;99.90
21115;DHT22;10715;48.546;9.896;2023-08-08T10:46:00;17.60;99.90
21115;DHT22;10715;48.546;9.896;2023-08-08T10:48:26;17.60;99.90
21115;DHT22;10715;48.546;9.896;2023-08-08T10:50:55;17.60;99.90
21115;DHT22;10715;48.546;9.896;2023-08-08T10:53:28;17.70;99.90
21115;DHT22;10715;48.546;9.896;2023-08-08T10:56:03;17.80;99.90
21115;DHT22;10715;48.546;9.896;2023-08-08T10:58:40;17.80;99.90
21115;DHT22;10715;48.546;9.896;2023-08-08T11:01:06;17.90;99.90
21115;DHT22;10715;48.546;9.896;2023-08-08T11:03:37;17.90;99.90
21115;DHT22;10715;48.546;9.896;2023-08-08T11:06:05;18.00;99.90
21115;DHT22;10715;48.546;9.896;2023-08-08T11:08:31;18.00;99.90
21115;DHT22;10715;48.546;9.896;2023-08-08T11:10:58;18.10;99.90
21115;DHT22;10715;48.546;9.896;2023-08-08T11:13:24;18.10;99.90
21115;DHT22;10715;48.546;9.896;2023-08-08T11:15:50;18.20;99.90
21115;DHT22;10715;48.546;9.896;2023-08-08T11:18:16;18.20;99.90
21115;DHT22;10715;48.546;9.896;2023-08-08T11:20:42;18.30;99.90
21115;DHT22;10715;48.546;9.896;2023-08-08T11:23:09;18.20;99.90
21115;DHT22;10715;48.546;9.896;2023-08-08T11:25:39;18.20;99.90
21115;DHT22;10715;48.546;9.896;2023-08-08T11:28:05;18.20;99.90
21115;DHT22;10715;48.546;9.896;2023-08-08T11:30:34;18.20;99.90
21115;DHT22;10715;48.546;9.896;2023-08-08T11:33:00;18.30;99.90
21115;DHT22;10715;48.546;9.896;2023-08-08T11:35:27;18.30;99.90
21115;DHT22;10715;48.546;9.896;2023-08-08T11:37:54;18.40;99.90
21115;DHT22;10715;48.546;9.896;2023-08-08T11:40:22;18.40;99.90
21115;DHT22;10715;48.546;9.896;2023-08-08T11:42:49;18.40;99.90
21115;DHT22;10715;48.546;9.896;2023-08-08T11:45:16;18.40;99.90
21115;DHT22;10715;48.546;9.896;2023-08-08T11:47:41;18.40;99.90
21115;DHT22;10715;48.546;9.896;2023-08-08T11:50:09;18.40;99.90
21115;DHT22;10715;48.546;9.896;2023-08-08T11:52:42;18.40;99.90
21115;DHT22;10715;48.546;9.896;2023-08-08T11:55:11;18.40;99.90
21115;DHT22;10715;48.546;9.896;2023-08-08T11:57:38;18.50;99.90
21115;DHT22;10715;48.546;9.896;2023-08-08T12:00:08;18.60;99.90
21115;DHT22;10715;48.546;9.896;2023-08-08T12:02:35;18.70;99.90
21115;DHT22;10715;48.546;9.896;2023-08-08T12:05:12;18.80;99.90
21115;DHT22;10715;48.546;9.896;2023-08-08T12:07:39;18.80;99.90
21115;DHT22;10715;48.546;9.896;2023-08-08T12:10:23;18.80;99.90
21115;DHT22;10715;48.546;9.896;2023-08-08T12:12:58;18.90;99.90
21115;DHT22;10715;48.546;9.896;2023-08-08T12:15:31;18.90;99.90
21115;DHT22;10715;48.546;9.896;2023-08-08T12:18:02;19.00;99.90
21115;DHT22;10715;48.546;9.896;2023-08-08T12:20:29;19.00;99.90
21115;DHT22;10715;48.546;9.896;2023-08-08T12:22:56;19.00;99.90
21115;DHT22;10715;48.546;9.896;2023-08-08T12:25:22;19.10;99.90
21115;DHT22;10715;48.546;9.896;2023-08-08T12:27:48;19.10;99.90
21115;DHT22;10715;48.546;9.896;2023-08-08T12:30:15;19.20;99.90
21115;DHT22;10715;48.546;9.896;2023-08-08T12:32:40;19.20;99.90
21115;DHT22;10715;48.546;9.896;2023-08-08T12:35:06;19.20;99.90
21115;DHT22;10715;48.546;9.896;2023-08-08T12:37:33;19.20;99.90
21115;DHT22;10715;48.546;9.896;2023-08-08T12:39:58;19.20;99.90
21115;DHT22;10715;48.546;9.896;2023-08-08T12:42:25;19.30;99.90
21115;DHT22;10715;48.546;9.896;2023-08-08T12:44:50;19.40;99.90
21115;DHT22;10715;48.546;9.896;2023-08-08T12:47:19;19.40;99.90
21115;DHT22;10715;48.546;9.896;2023-08-08T12:49:46;19.40;99.90
21115;DHT22;10715;48.546;9.896;2023-08-08T12:52:12;19.50;99.90
21115;DHT22;10715;48.546;9.896;2023-08-08T12:54:38;19.40;99.90
21115;DHT22;10715;48.546;9.896;2023-08-08T12:57:04;19.40;99.90
21115;DHT22;10715;48.546;9.896;2023-08-08T12:59:29;19.40;99.90
21115;DHT22;10715;48.546;9.896;2023-08-08T13:01:55;19.40;99.90
21115;DHT22;10715;48.546;9.896;2023-08-08T13:04:21;19.40;99.90
21115;DHT22;10715;48.546;9.896;2023-08-08T13:06:48;19.40;99.90
21115;DHT22;10715;48.546;9.896;2023-08-08T13:09:14;19.30;99.90
21115;DHT22;10715;48.546;9.896;2023-08-08T13:11:41;19.40;99.90
21115;DHT22;10715;48.546;9.896;2023-08-08T13:14:07;19.40;99.90
21115;DHT22;10715;48.546;9.896;2023-08-08T13:16:32;19.40;99.90
21115;DHT22;10715;48.546;9.896;2023-08-08T13:18:58;19.40;99.90
21115;DHT22;10715;48.546;9.896;2023-08-08T13:21:24;19.50;99.90
21115;DHT22;10715;48.546;9.896;2023-08-08T13:23:50;19.50;99.90
21115;DHT22;10715;48.546;9.896;2023-08-08T13:26:15;19.50;99.90
21115;DHT22;10715;48.546;9.896;2023-08-08T13:28:41;19.50;99.90
21115;DHT22;10715;48.546;9.896;2023-08-08T13:31:08;19.50;99.90
21115;DHT22;10715;48.546;9.896;2023-08-08T13:33:34;19.50;99.90
21115;DHT22;10715;48.546;9.896;2023-08-08T13:36:00;19.50;99.90
21115;DHT22;10715;48.546;9.896;2023-08-08T13:38:26;19.50;99.90
21115;DHT22;10715;48.546;9.896;2023-08-08T13:40:52;19.50;99.90
21115;DHT22;10715;48.546;9.896;2023-08-08T13:43:17;19.60;99.90
21115;DHT22;10715;48.546;9.896;2023-08-08T13:45:43;19.60;99.90
21115;DHT22;10715;48.546;9.896;2023-08-08T13:48:09;19.60;99.90
21115;DHT22;10715;48.546;9.896;2023-08-08T13:50:35;19.70;99.90
21115;DHT22;10715;48.546;9.896;2023-08-08T13:53:01;19.70;99.90
21115;DHT22;10715;48.546;9.896;2023-08-08T13:55:27;19.70;99.90
21115;DHT22;10715;48.546;9.896;2023-08-08T13:57:52;19.70;99.90
21115;DHT22;10715;48.546;9.896;2023-08-08T14:00:20;19.70;99.90
21115;DHT22;10715;48.546;9.896;2023-08-08T14:02:47;19.80;99.90
21115;DHT22;10715;48.546;9.896;2023-08-08T14:05:13;19.80;99.90
21115;DHT22;10715;48.546;9.896;2023-08-08T14:07:38;19.80;99.90
21115;DHT22;10715;48.546;9.896;2023-08-08T14:10:05;19.70;99.90
21115;DHT22;10715;48.546;9.896;2023-08-08T14:12:31;19.80;99.90
21115;DHT22;10715;48.546;9.896;2023-08-08T14:14:56;19.70;99.90
21115;DHT22;10715;48.546;9.896;2023-08-08T14:17:22;19.70;99.90
21115;DHT22;10715;48.546;9.896;2023-08-08T14:19:48;19.70;99.90
21115;DHT22;10715;48.546;9.896;2023-08-08T14:22:14;19.60;99.90
21115;DHT22;10715;48.546;9.896;2023-08-08T14:24:41;19.60;99.90
21115;DHT22;10715;48.546;9.896;2023-08-08T14:27:07;19.50;99.90
21115;DHT22;10715;48.546;9.896;2023-08-08T14:29:32;19.50;99.90
21115;DHT22;10715;48.546;9.896;2023-08-08T14:31:58;19.40;99.90
21115;DHT22;10715;48.546;9.896;2023-08-08T14:34:33;19.40;99.90
21115;DHT22;10715;48.546;9.896;2023-08-08T14:37:00;19.30;99.90
21115;DHT22;10715;48.546;9.896;2023-08-08T14:39:27;19.20;99.90
21115;DHT22;10715;48.546;9.896;2023-08-08T14:41:52;19.20;99.90
21115;DHT22;10715;48.546;9.896;2023-08-08T14:44:18;19.10;99.90
21115;DHT22;10715;48.546;9.896;2023-08-08T14:46:44;19.10;99.90
21115;DHT22;10715;48.546;9.896;2023-08-08T14:49:10;19.00;99.90
21115;DHT22;10715;48.546;9.896;2023-08-08T14:51:35;19.00;99.90
21115;DHT22;10715;48.546;9.896;2023-08-08T14:54:02;19.00;99.90
21115;DHT22;10715;48.546;9.896;2023-08-08T14:56:28;19.00;99.90
21115;DHT22;10715;48.546;9.896;2023-08-08T14:58:53;18.90;99.90
21115;DHT22;10715;48.546;9.896;2023-08-08T15:01:19;18.90;99.90
21115;DHT22;10715;48.546;9.896;2023-08-08T15:03:45;18.90;99.90
21115;DHT22;10715;48.546;9.896;2023-08-08T15:06:11;18.90;99.90
21115;DHT22;10715;48.546;9.896;2023-08-08T15:08:37;18.90;99.90
21115;DHT22;10715;48.546;9.896;2023-08-08T15:11:02;18.90;99.90
21115;DHT22;10715;48.546;9.896;2023-08-08T15:13:28;18.90;99.90
21115;DHT22;10715;48.546;9.896;2023-08-08T15:15:54;18.90;99.90
21115;DHT22;10715;48.546;9.896;2023-08-08T15:18:20;18.90;99.90
21115;DHT22;10715;48.546;9.896;2023-08-08T15:20:45;18.90;99.90
21115;DHT22;10715;48.546;9.896;2023-08-08T15:23:11;18.90;99.90
21115;DHT22;10715;48.546;9.896;2023-08-08T15:25:40;18.90;99.90
21115;DHT22;10715;48.546;9.896;2023-08-08T15:28:07;18.80;99.90
21115;DHT22;10715;48.546;9.896;2023-08-08T15:30:33;18.80;99.90
21115;DHT22;10715;48.546;9.896;2023-08-08T15:32:58;18.80;99.90
21115;DHT22;10715;48.546;9.896;2023-08-08T15:35:24;18.80;99.90